Time;durP1;ratioP1;P1;durP2;ratioP2;P2;SDS_P1;SDS_P2;PMS_P1;PMS_P2;Temp;Humidity;BMP_temperature;BMP_pressure;BME280_temperature;BME280_humidity;BME280_pressure;Samples;Min_cycle;Max_cycle;Signal;HPM_P1;HPM_P2
2024/03/01 00:01:24;;;;;;;40.00;23.40;;;;;;;9.46;93.92;100438.91;5070765;28;20563;-67
2024/03/01 00:03:53;;;;;;;41.63;24.27;;;;;;;9.45;94.23;100442.34;5070609;28;20737;-66
2024/03/01 00:06:22;;;;;;;42.27;25.43;;;;;;;9.47;93.79;100434.66;5070494;28;20219;-68
2024/03/01 00:08:50;;;;;;;40.90;24.50;;;;;;;9.47;94.29;100425.22;5068212;28;20290;-67
2024/03/01 00:11:18;;;;;;;44.07;25.63;;;;;;;9.47;94.14;100438.06;5070071;28;20229;-69
2024/03/01 00:13:46;;;;;;;41.10;24.10;;;;;;;9.44;94.26;100431.22;5065071;28;20322;-67
2024/03/01 00:16:17;;;;;;;45.10;26.13;;;;;;;9.47;94.38;100430.34;5067135;28;20197;-71
2024/03/01 00:18:45;;;;;;;40.03;25.40;;;;;;;9.47;93.85;100424.34;5064916;28;20564;-70
2024/03/01 00:21:14;;;;;;;40.07;24.53;;;;;;;9.43;94.33;100418.34;5063266;28;20201;-70
2024/03/01 00:23:44;;;;;;;45.93;26.47;;;;;;;9.45;94.07;100421.78;5070245;28;20201;-72
2024/03/01 00:26:13;;;;;;;45.13;26.10;;;;;;;9.44;93.71;100418.34;5076216;28;20201;-70
2024/03/01 00:28:41;;;;;;;43.27;25.27;;;;;;;9.44;94.31;100417.50;5061260;28;20251;-70
2024/03/01 00:31:09;;;;;;;40.70;24.63;;;;;;;9.44;93.83;100414.91;5070660;28;21048;-70
2024/03/01 00:33:37;;;;;;;45.50;27.10;;;;;;;9.46;94.29;100407.19;5073844;28;20253;-68
2024/03/01 00:36:07;;;;;;;45.83;26.70;;;;;;;9.43;93.87;100403.78;5075274;28;20220;-70
2024/03/01 00:38:35;;;;;;;43.10;26.00;;;;;;;9.45;93.99;100403.75;5073469;28;20615;-70
2024/03/01 00:41:05;;;;;;;42.40;25.93;;;;;;;9.42;94.28;100406.34;5073941;28;20205;-72
2024/03/01 00:43:35;;;;;;;44.77;26.33;;;;;;;9.46;93.83;100391.75;5071374;28;20205;-70
2024/03/01 00:46:03;;;;;;;43.10;25.30;;;;;;;9.45;94.29;100390.91;5074035;28;20211;-70
2024/03/01 00:48:34;;;;;;;44.73;26.63;;;;;;;9.44;93.67;100384.06;5070138;28;20205;-68
2024/03/01 00:51:02;;;;;;;47.87;27.20;;;;;;;9.42;93.79;100376.31;5073982;28;20733;-70
2024/03/01 00:53:31;;;;;;;45.60;27.87;;;;;;;9.42;94.07;100375.47;5069356;28;20629;-69
2024/03/01 00:56:00;;;;;;;44.63;27.17;;;;;;;9.40;93.91;100375.50;5070948;28;20201;-69
2024/03/01 00:58:29;;;;;;;47.40;27.97;;;;;;;9.39;94.06;100376.34;5073010;28;20636;-70
2024/03/01 01:00:57;;;;;;;46.27;27.83;;;;;;;9.38;94.08;100373.78;5066109;28;20206;-69
2024/03/01 01:03:25;;;;;;;48.90;28.87;;;;;;;9.36;93.89;100366.06;5069768;28;20233;-70
2024/03/01 01:05:53;;;;;;;49.93;28.23;;;;;;;9.36;94.03;100360.06;5069926;28;20235;-71
2024/03/01 01:08:21;;;;;;;49.47;28.23;;;;;;;9.35;93.99;100363.47;5067275;28;20227;-69
2024/03/01 01:10:49;;;;;;;48.87;28.00;;;;;;;9.36;94.02;100365.22;5073374;28;20288;-69
2024/03/01 01:13:17;;;;;;;44.13;27.87;;;;;;;9.35;94.27;100358.34;5072448;28;20271;-68
2024/03/01 01:15:47;;;;;;;49.77;29.73;;;;;;;9.34;94.26;100351.50;5071298;28;20288;-69
2024/03/01 01:18:16;;;;;;;46.43;28.90;;;;;;;9.33;94.04;100353.22;5073376;28;20198;-69
2024/03/01 01:20:46;;;;;;;47.97;29.00;;;;;;;9.33;94.29;100362.66;5072910;28;20205;-71
2024/03/01 01:23:15;;;;;;;52.77;28.87;;;;;;;9.31;93.86;100348.91;5060292;28;20745;-68
2024/03/01 01:25:43;;;;;;;48.73;28.63;;;;;;;9.30;94.61;100349.78;5070190;28;20216;-69
2024/03/01 01:28:11;;;;;;;53.13;29.23;;;;;;;9.28;94.21;100341.19;5072370;28;20209;-69
2024/03/01 01:30:40;;;;;;;46.57;28.20;;;;;;;9.30;94.18;100339.50;5068996;28;20249;-71
2024/03/01 01:33:09;;;;;;;50.27;28.20;;;;;;;9.31;94.67;100331.78;5072420;28;20274;-69
2024/03/01 01:35:37;;;;;;;44.30;27.23;;;;;;;9.31;94.52;100325.78;5072708;28;20217;-68
2024/03/01 01:38:05;;;;;;;49.33;29.53;;;;;;;9.29;94.32;100323.22;5072516;28;20717;-68
2024/03/01 01:40:33;;;;;;;47.20;28.77;;;;;;;9.30;94.73;100318.94;5069886;28;20224;-69
2024/03/01 01:43:03;;;;;;;45.63;28.00;;;;;;;9.30;94.58;100311.22;5071975;28;20716;-69
2024/03/01 01:45:32;;;;;;;48.83;29.77;;;;;;;9.27;94.28;100314.63;5070974;28;20621;-67
2024/03/01 01:48:02;;;;;;;51.83;28.70;;;;;;;9.27;94.29;100318.94;5070310;28;20212;-69
2024/03/01 01:50:33;;;;;;;47.23;29.27;;;;;;;9.26;94.25;100310.38;5068756;28;20208;-70
2024/03/01 01:53:03;;;;;;;50.87;29.50;;;;;;;9.26;94.28;100306.94;5068355;28;20202;-71
2024/03/01 01:55:45;;;;;;;49.90;30.37;;;;;;;9.26;94.57;100307.78;5068024;28;20205;-68
2024/03/01 01:58:13;;;;;;;45.23;28.20;;;;;;;9.25;94.15;100307.81;5069102;28;21094;-69
2024/03/01 02:00:41;;;;;;;50.73;29.10;;;;;;;9.26;94.95;100304.38;5071815;28;20197;-71
2024/03/01 02:03:09;;;;;;;49.73;29.17;;;;;;;9.29;94.70;100306.94;5063436;28;20217;-67
2024/03/01 02:05:40;;;;;;;49.40;28.97;;;;;;;9.28;94.00;100295.81;5071550;28;20574;-69
2024/03/01 02:08:08;;;;;;;52.43;31.53;;;;;;;9.26;93.71;100291.50;5071058;28;20731;-70
2024/03/01 02:10:37;;;;;;;54.30;29.37;;;;;;;9.23;93.91;100292.38;5070607;28;20216;-70
2024/03/01 02:13:06;;;;;;;51.17;30.57;;;;;;;9.21;94.74;100300.97;5071419;28;20248;-68
2024/03/01 02:15:34;;;;;;;50.67;30.10;;;;;;;9.19;94.40;100286.38;5070453;28;20236;-68
2024/03/01 02:18:04;;;;;;;51.50;30.60;;;;;;;9.18;94.55;100289.81;5067219;28;20224;-70
2024/03/01 02:20:32;;;;;;;51.67;30.40;;;;;;;9.17;94.34;100298.41;5069822;28;20232;-70
2024/03/01 02:23:05;;;;;;;50.63;30.53;;;;;;;9.17;94.20;100293.25;5071868;28;20201;-69
2024/03/01 02:25:35;;;;;;;53.50;31.10;;;;;;;9.19;94.70;100290.66;5069212;28;20201;-68
2024/03/01 02:28:03;;;;;;;50.40;29.33;;;;;;;9.17;94.25;100284.69;5072022;28;20205;-70
2024/03/01 02:30:31;;;;;;;49.77;30.23;;;;;;;9.12;94.02;100284.66;5072330;28;20288;-70
2024/03/01 02:32:59;;;;;;;53.53;30.53;;;;;;;9.13;94.15;100288.97;5071888;28;20235;-68
2024/03/01 02:35:27;;;;;;;52.13;30.10;;;;;;;9.15;94.20;100287.25;5066146;28;20228;-71
2024/03/01 02:37:55;;;;;;;53.43;31.93;;;;;;;9.15;93.83;100283.81;5067470;28;20197;-69
2024/03/01 02:40:24;;;;;;;48.97;30.23;;;;;;;9.14;94.47;100279.53;5071205;28;20201;-67
2024/03/01 02:42:53;;;;;;;46.67;29.70;;;;;;;9.11;94.08;100272.69;5069005;28;20208;-71
2024/03/01 02:45:21;;;;;;;50.80;29.30;;;;;;;9.13;94.39;100270.97;5071236;28;20201;-68
2024/03/01 02:47:50;;;;;;;50.73;30.07;;;;;;;9.13;94.47;100276.13;5065045;28;20197;-69
2024/03/01 02:50:18;;;;;;;50.30;30.70;;;;;;;9.13;93.99;100270.97;5070745;28;20216;-68
2024/03/01 02:52:48;;;;;;;47.07;29.33;;;;;;;9.09;94.50;100264.09;5070897;28;20674;-69
2024/03/01 02:55:20;;;;;;;47.07;28.60;;;;;;;9.12;94.00;100268.41;5068078;28;20216;-69
2024/03/01 02:57:48;;;;;;;55.23;31.37;;;;;;;9.11;94.00;100262.41;5071402;28;20216;-69
2024/03/01 03:00:19;;;;;;;46.63;28.73;;;;;;;9.10;94.50;100259.84;5068298;28;20255;-72
2024/03/01 03:02:47;;;;;;;54.60;31.63;;;;;;;9.11;94.35;100261.56;5060112;28;20558;-71
2024/03/01 03:05:15;;;;;;;51.20;29.83;;;;;;;9.11;94.43;100257.25;5063259;28;20206;-71
2024/03/01 03:07:43;;;;;;;49.37;30.70;;;;;;;9.12;94.26;100258.13;5068905;28;20667;-70
2024/03/01 03:10:11;;;;;;;52.63;30.17;;;;;;;9.11;94.17;100251.28;5070572;28;20197;-68
2024/03/01 03:12:39;;;;;;;51.90;32.70;;;;;;;9.09;94.21;100251.25;5065330;28;20236;-69
2024/03/01 03:15:09;;;;;;;51.27;31.43;;;;;;;9.07;93.97;100252.13;5062050;28;20258;-68
2024/03/01 03:17:38;;;;;;;49.73;31.20;;;;;;;9.07;94.42;100249.56;5068542;28;20327;-71
2024/03/01 03:20:10;;;;;;;51.10;30.80;;;;;;;9.03;94.19;100245.31;5070812;28;20228;-69
2024/03/01 03:22:40;;;;;;;52.40;31.60;;;;;;;9.05;94.50;100239.28;5070969;28;20217;-71
2024/03/01 03:25:13;;;;;;;53.03;32.17;;;;;;;9.06;94.85;100241.00;5071323;28;20205;-70
2024/03/01 03:27:43;;;;;;;54.90;31.77;;;;;;;9.05;95.02;100234.13;5077563;28;20222;-70
2024/03/01 03:30:12;;;;;;;50.90;30.57;;;;;;;9.06;94.66;100232.44;5069934;28;20288;-69
2024/03/01 03:32:42;;;;;;;54.93;33.00;;;;;;;9.06;94.77;100233.28;5070816;28;20218;-70
2024/03/01 03:35:10;;;;;;;52.20;31.57;;;;;;;9.06;95.07;100230.72;5067405;28;20223;-69
2024/03/01 03:37:38;;;;;;;58.03;32.90;;;;;;;9.09;94.98;100228.13;5069860;28;20213;-68
2024/03/01 03:40:14;;;;;;;51.60;32.00;;;;;;;9.10;94.28;100235.00;5071268;28;20708;-70
2024/03/01 03:42:43;;;;;;;51.77;31.80;;;;;;;9.09;94.38;100228.13;5070248;28;20204;-70
2024/03/01 03:45:12;;;;;;;52.83;31.23;;;;;;;9.07;94.38;100229.84;5071430;28;20602;-68
2024/03/01 03:47:40;;;;;;;56.90;33.10;;;;;;;9.06;94.58;100225.59;5071406;28;20205;-69
2024/03/01 03:50:10;;;;;;;52.37;31.17;;;;;;;9.04;94.96;100224.72;5071073;28;20205;-69
2024/03/01 03:52:38;;;;;;;52.13;30.80;;;;;;;9.04;94.43;100224.72;5068265;28;20229;-69
2024/03/01 03:55:07;;;;;;;53.93;32.30;;;;;;;9.04;94.70;100219.59;5070005;28;20560;-71
2024/03/01 03:57:36;;;;;;;51.17;30.30;;;;;;;9.06;95.20;100222.16;5071405;28;20299;-70
2024/03/01 04:00:10;;;;;;;56.43;30.97;;;;;;;9.03;95.49;100215.31;5066780;28;20215;-69
2024/03/01 04:02:46;;;;;;;49.70;31.53;;;;;;;8.99;94.76;100218.75;5071839;28;20213;-69
2024/03/01 04:05:15;;;;;;;51.37;31.73;;;;;;;8.99;95.33;100210.19;5070275;28;20205;-69
2024/03/01 04:07:44;;;;;;;52.57;30.03;;;;;;;8.94;95.33;100207.59;5064662;28;20232;-68
2024/03/01 04:10:12;;;;;;;54.27;32.53;;;;;;;8.98;95.16;100222.16;5072846;28;20208;-70
2024/03/01 04:12:42;;;;;;;50.50;28.97;;;;;;;8.96;95.43;100216.19;5075229;28;20306;-68
2024/03/01 04:15:10;;;;;;;51.73;31.53;;;;;;;8.95;95.85;100210.19;5075358;28;20209;-71
2024/03/01 04:17:39;;;;;;;48.63;29.50;;;;;;;8.95;96.06;100204.19;5074745;28;20316;-68
2024/03/01 04:20:08;;;;;;;51.30;29.90;;;;;;;8.94;95.82;100212.75;5072584;28;20287;-69
2024/03/01 04:22:38;;;;;;;47.80;28.37;;;;;;;8.93;95.91;100200.75;5074307;28;20206;-69
2024/03/01 04:25:06;;;;;;;50.93;30.43;;;;;;;8.93;95.83;100200.75;5073284;28;20197;-68
2024/03/01 04:27:34;;;;;;;51.57;30.60;;;;;;;8.89;95.79;100199.06;5070074;28;20197;-72
2024/03/01 04:30:02;;;;;;;48.47;30.27;;;;;;;8.87;95.94;100208.47;5074020;28;20212;-69
2024/03/01 04:32:30;;;;;;;50.87;31.30;;;;;;;8.84;96.13;100211.06;5073856;28;20580;-70
2024/03/01 04:34:58;;;;;;;45.10;28.50;;;;;;;8.83;96.10;100206.78;5074147;28;20232;-69
2024/03/01 04:37:27;;;;;;;52.60;30.50;;;;;;;8.81;95.70;100204.22;5071682;28;20205;-70
2024/03/01 04:39:56;;;;;;;50.43;29.87;;;;;;;8.81;96.55;100209.34;5072696;28;20696;-68
2024/03/01 04:42:24;;;;;;;45.80;30.37;;;;;;;8.81;96.38;100201.66;5073872;28;20205;-69
2024/03/01 04:44:53;;;;;;;48.27;29.37;;;;;;;8.84;96.16;100198.22;5061509;28;20193;-68
2024/03/01 04:47:21;;;;;;;43.17;27.93;;;;;;;8.81;96.21;100195.66;5073354;28;20678;-71
2024/03/01 04:49:49;;;;;;;45.33;28.47;;;;;;;8.82;95.41;100210.22;5074226;28;20780;-71
2024/03/01 04:52:17;;;;;;;48.27;28.80;;;;;;;8.83;96.04;100210.19;5072173;28;20215;-70
2024/03/01 04:54:46;;;;;;;50.87;28.50;;;;;;;8.82;95.54;100208.50;5074264;28;20201;-68
2024/03/01 04:57:16;;;;;;;45.27;27.83;;;;;;;8.84;95.79;100211.06;5073525;28;20697;-70
2024/03/01 04:59:44;;;;;;;45.43;27.87;;;;;;;8.84;95.79;100200.81;5073730;28;20507;-69
2024/03/01 05:02:12;;;;;;;44.50;28.27;;;;;;;8.82;95.70;100210.22;5070432;28;20205;-71
2024/03/01 05:04:40;;;;;;;42.53;26.63;;;;;;;8.77;94.88;100199.09;5073710;28;20288;-70
2024/03/01 05:07:11;;;;;;;46.37;27.50;;;;;;;8.65;95.67;100218.81;5068572;28;20204;-69
2024/03/01 05:09:42;;;;;;;39.90;26.53;;;;;;;8.71;95.28;100211.06;5073440;28;20208;-70
2024/03/01 05:12:14;;;;;;;40.90;25.53;;;;;;;8.69;95.44;100217.09;5073358;28;20290;-70
2024/03/01 05:14:43;;;;;;;40.03;25.40;;;;;;;8.67;95.46;100211.94;5073210;28;20201;-69
2024/03/01 05:17:11;;;;;;;42.10;25.77;;;;;;;8.64;95.73;100214.50;5071302;28;20308;-70
2024/03/01 05:19:40;;;;;;;41.90;25.93;;;;;;;8.65;95.82;100218.81;5063703;28;20198;-72
2024/03/01 05:22:12;;;;;;;42.53;24.33;;;;;;;8.64;95.62;100213.66;5065432;28;20296;-70
2024/03/01 05:24:41;;;;;;;43.30;26.77;;;;;;;8.62;95.91;100213.66;5070858;28;20661;-69
2024/03/01 05:27:12;;;;;;;37.10;24.13;;;;;;;8.64;95.83;100221.34;5072586;28;20298;-71
2024/03/01 05:29:40;;;;;;;41.17;25.87;;;;;;;8.58;95.96;100217.09;5071825;28;20626;-72
2024/03/01 05:32:10;;;;;;;39.00;25.10;;;;;;;8.57;95.41;100214.50;5072640;28;20194;-70
2024/03/01 05:34:38;;;;;;;35.30;25.50;;;;;;;8.56;94.63;100216.22;5072793;28;20576;-69
2024/03/01 05:37:06;;;;;;;41.73;23.93;;;;;;;8.53;95.17;100210.25;5066038;28;20252;-69
2024/03/01 05:39:34;;;;;;;37.77;24.70;;;;;;;8.51;95.24;100220.53;5068144;28;20213;-70
2024/03/01 05:42:06;;;;;;;37.10;25.07;;;;;;;8.49;95.53;100219.66;5068227;28;20197;-70
2024/03/01 05:44:34;;;;;;;43.40;26.90;;;;;;;8.50;96.02;100210.25;5073884;28;20201;-69
2024/03/01 05:47:03;;;;;;;41.20;23.93;;;;;;;8.51;95.11;100217.97;5073646;28;20229;-70
2024/03/01 05:49:32;;;;;;;39.57;23.70;;;;;;;8.49;95.18;100217.09;5072351;28;20244;-68
2024/03/01 05:52:01;;;;;;;37.57;24.07;;;;;;;8.45;95.61;100212.81;5071538;28;20201;-68
2024/03/01 05:54:32;;;;;;;38.50;25.60;;;;;;;8.47;95.86;100221.38;5066902;28;20217;-70
2024/03/01 05:57:00;;;;;;;36.50;23.67;;;;;;;8.46;95.11;100220.50;5073680;28;20205;-70
2024/03/01 05:59:28;;;;;;;38.67;23.20;;;;;;;8.41;94.86;100214.53;5073203;28;20617;-71
2024/03/01 06:01:56;;;;;;;38.00;23.50;;;;;;;8.43;95.17;100217.09;5073250;28;20205;-71
2024/03/01 06:04:24;;;;;;;34.07;23.60;;;;;;;8.41;95.58;100223.94;5068473;28;20220;-70
2024/03/01 06:06:54;;;;;;;35.30;22.93;;;;;;;8.39;94.75;100223.94;5064845;28;20194;-69
2024/03/01 06:09:22;;;;;;;38.50;23.80;;;;;;;8.38;95.19;100217.09;5072144;28;20288;-69
2024/03/01 06:11:49;;;;;;;38.77;25.60;;;;;;;8.38;95.06;100217.09;5070705;28;20209;-68
2024/03/01 06:14:18;;;;;;;38.40;23.80;;;;;;;8.37;95.57;100207.69;5067446;28;20217;-69
2024/03/01 06:16:47;;;;;;;36.30;23.70;;;;;;;8.37;94.49;100209.38;5066345;28;20213;-69
2024/03/01 06:19:17;;;;;;;38.17;24.03;;;;;;;8.38;95.29;100216.25;5073448;28;20288;-69
2024/03/01 06:21:45;;;;;;;36.17;23.20;;;;;;;8.38;94.82;100213.66;5069619;28;20208;-71
2024/03/01 06:24:15;;;;;;;37.63;22.73;;;;;;;8.41;95.36;100226.50;5073338;28;20213;-69
2024/03/01 06:26:43;;;;;;;37.27;23.13;;;;;;;8.42;94.84;100215.38;5071616;28;20197;-71
2024/03/01 06:29:14;;;;;;;39.30;23.13;;;;;;;8.43;94.20;100219.66;5064284;28;20220;-69
2024/03/01 06:31:42;;;;;;;39.97;23.97;;;;;;;8.45;94.70;100223.09;5071461;28;20220;-68
2024/03/01 06:34:10;;;;;;;34.73;22.93;;;;;;;8.47;94.48;100221.38;5074792;28;20646;-70
2024/03/01 06:36:38;;;;;;;35.00;22.53;;;;;;;8.49;92.81;100222.22;5072954;28;20608;-69
2024/03/01 06:39:08;;;;;;;33.60;22.70;;;;;;;8.45;93.04;100212.81;5069637;28;20258;-70
2024/03/01 06:41:38;;;;;;;36.10;22.07;;;;;;;8.48;93.54;100215.38;5072393;28;20205;-68
2024/03/01 06:44:06;;;;;;;35.03;22.57;;;;;;;8.50;92.69;100215.38;5063650;28;20228;-71
2024/03/01 06:46:36;;;;;;;32.90;21.53;;;;;;;8.52;92.65;100203.41;5073383;28;20551;-74
2024/03/01 06:49:05;;;;;;;33.43;22.00;;;;;;;8.51;92.31;100204.28;5065662;28;20202;-75
2024/03/01 06:51:36;;;;;;;30.27;21.00;;;;;;;8.54;92.32;100207.66;5069945;28;20209;-74
2024/03/01 06:54:06;;;;;;;35.57;21.67;;;;;;;8.57;91.74;100212.78;5062978;28;20217;-73
2024/03/01 06:56:39;;;;;;;34.93;21.93;;;;;;;8.58;91.25;100211.09;5069209;28;20275;-72
2024/03/01 06:59:10;;;;;;;30.30;20.40;;;;;;;8.58;91.36;100213.66;5068984;28;20284;-74
2024/03/01 07:01:40;;;;;;;31.00;20.63;;;;;;;8.60;91.00;100205.09;5061451;28;20205;-71
2024/03/01 07:04:09;;;;;;;33.40;21.03;;;;;;;8.63;91.29;100209.38;5065206;28;20373;-73
2024/03/01 07:06:37;;;;;;;30.97;21.37;;;;;;;8.68;90.99;100210.22;5072800;28;20213;-74
2024/03/01 07:09:05;;;;;;;30.57;20.13;;;;;;;8.67;90.41;100209.38;5070576;28;20236;-70
2024/03/01 07:11:35;;;;;;;31.80;20.20;;;;;;;8.69;89.92;100212.81;5072162;28;20232;-74
2024/03/01 07:14:03;;;;;;;30.23;20.00;;;;;;;8.72;89.04;100204.22;5065529;28;20427;-73
2024/03/01 07:16:33;;;;;;;29.87;20.57;;;;;;;8.73;88.21;100207.63;5068504;28;20228;-74
2024/03/01 07:19:06;;;;;;;34.03;20.40;;;;;;;8.82;88.66;100203.34;5065745;28;20232;-71
2024/03/01 07:21:35;;;;;;;31.87;19.57;;;;;;;8.93;88.04;100206.75;5067882;28;20272;-74
2024/03/01 07:24:06;;;;;;;26.57;18.97;;;;;;;9.08;87.83;100208.44;5073115;28;20205;-74
2024/03/01 07:26:34;;;;;;;33.87;20.27;;;;;;;9.30;87.24;100195.50;5071038;28;20251;-76
2024/03/01 07:29:02;;;;;;;28.60;18.73;;;;;;;9.62;85.24;100198.78;5072307;28;20206;-75
2024/03/01 07:31:30;;;;;;;29.70;18.47;;;;;;;9.74;82.47;100191.88;5064536;28;20657;-74
2024/03/01 07:34:00;;;;;;;28.90;19.37;;;;;;;9.85;81.54;100190.09;5073173;28;20209;-73
2024/03/01 07:36:29;;;;;;;27.23;18.13;;;;;;;9.92;81.51;100192.59;5066405;28;20202;-72
2024/03/01 07:38:57;;;;;;;26.17;18.60;;;;;;;9.96;80.81;100185.72;5063716;28;20274;-73
2024/03/01 07:41:25;;;;;;;25.33;18.20;;;;;;;10.00;79.71;100192.56;5078875;28;20254;-74
2024/03/01 07:43:53;;;;;;;29.43;19.27;;;;;;;10.01;80.07;100195.97;5079668;28;20205;-74
2024/03/01 07:46:21;;;;;;;27.40;17.70;;;;;;;10.09;79.48;100197.66;5077972;28;20212;-73
2024/03/01 07:48:50;;;;;;;24.67;17.47;;;;;;;10.14;79.85;100193.31;5077089;28;20212;-67
2024/03/01 07:51:19;;;;;;;25.30;17.83;;;;;;;10.28;79.55;100185.53;5072012;28;20220;-69
2024/03/01 07:53:47;;;;;;;25.13;17.97;;;;;;;10.38;78.82;100186.28;5071921;28;20811;-70
2024/03/01 07:56:15;;;;;;;27.93;18.47;;;;;;;10.47;75.79;100188.78;5075694;28;20197;-72
2024/03/01 07:58:44;;;;;;;26.13;16.90;;;;;;;10.49;75.64;100186.19;5078488;28;20267;-74
2024/03/01 08:01:12;;;;;;;23.53;16.03;;;;;;;10.77;75.28;100186.78;5078224;28;20228;-75
2024/03/01 08:03:40;;;;;;;29.00;17.90;;;;;;;11.22;75.51;100179.41;5078711;28;20201;-74
2024/03/01 08:06:08;;;;;;;26.87;17.00;;;;;;;11.61;71.88;100176.31;5079196;28;20203;-74
2024/03/01 08:08:44;;;;;;;23.20;15.33;;;;;;;12.08;69.30;100182.56;5078113;28;20204;-72
2024/03/01 08:11:27;;;;;;;23.83;15.73;;;;;;;12.34;67.83;100181.28;5071157;28;20239;-72
2024/03/01 08:13:56;;;;;;;26.57;15.83;;;;;;;12.54;67.83;100176.63;5064624;28;20232;-72
2024/03/01 08:16:26;;;;;;;22.63;15.27;;;;;;;12.71;66.49;100189.25;5076725;28;20693;-72
2024/03/01 08:18:54;;;;;;;23.73;16.10;;;;;;;12.69;65.78;100188.41;5070301;28;20221;-72
2024/03/01 08:21:23;;;;;;;25.03;15.20;;;;;;;12.45;64.38;100192.31;5074879;28;20281;-71
2024/03/01 08:23:53;;;;;;;22.57;16.87;;;;;;;12.03;65.74;100178.31;5073682;28;20625;-71
2024/03/01 08:26:24;;;;;;;23.43;16.00;;;;;;;11.78;67.24;100182.97;5076202;28;20572;-71
2024/03/01 08:28:53;;;;;;;25.30;16.73;;;;;;;11.58;67.69;100188.41;5073183;28;20197;-72
2024/03/01 08:31:26;;;;;;;22.47;15.73;;;;;;;11.43;69.02;100175.72;5073410;28;20567;-73
2024/03/01 08:34:00;;;;;;;24.97;15.87;;;;;;;11.37;68.84;100177.47;5076045;28;20201;-72
2024/03/01 08:36:28;;;;;;;27.03;16.83;;;;;;;11.34;68.49;100187.00;5072789;28;20205;-71
2024/03/01 08:39:10;;;;;;;22.23;15.37;;;;;;;11.31;69.01;100174.16;5074054;28;20213;-74
2024/03/01 08:41:40;;;;;;;23.60;15.63;;;;;;;11.36;69.25;100174.94;5076139;28;20201;-72
2024/03/01 08:44:53;;;;;;;21.80;14.67;;;;;;;11.33;68.96;100169.81;5076338;28;20976;-72
2024/03/01 08:47:26;;;;;;;26.03;16.73;;;;;;;11.31;69.04;100163.84;5039821;28;20209;-72
2024/03/01 08:50:38;;;;;;;25.03;15.00;;;;;;;11.37;69.54;100159.44;5071532;28;20614;-71
2024/03/01 08:53:39;;;;;;;24.77;14.53;;;;;;;11.43;67.84;100155.06;5069459;28;20209;-74
2024/03/01 08:56:15;;;;;;;22.80;15.77;;;;;;;11.28;67.96;100146.66;5064726;28;20231;-72
2024/03/01 08:58:44;;;;;;;22.20;16.23;;;;;;;11.20;68.93;100157.97;5072350;28;20330;-71
2024/03/01 09:01:45;;;;;;;24.20;15.00;;;;;;;11.07;68.68;100147.78;5071447;28;20658;-70
2024/03/01 09:04:20;;;;;;;24.20;14.60;;;;;;;11.01;68.95;100147.88;5074208;28;20228;-72
2024/03/01 09:07:00;;;;;;;23.90;15.83;;;;;;;11.06;69.61;100140.91;5068416;28;20201;-72
2024/03/01 09:09:31;;;;;;;21.23;15.47;;;;;;;11.07;69.02;100136.59;5070205;28;20236;-77
2024/03/01 09:12:01;;;;;;;23.93;14.87;;;;;;;11.07;68.96;100134.88;5072722;28;20658;-70
2024/03/01 09:14:31;;;;;;;23.13;14.80;;;;;;;11.06;68.11;100135.75;5072710;28;20631;-75
2024/03/01 09:17:01;;;;;;;20.83;14.40;;;;;;;11.06;69.01;100130.59;5073622;28;20284;-71
2024/03/01 09:19:35;;;;;;;20.70;14.73;;;;;;;11.05;68.79;100126.31;5072387;28;20216;-70
2024/03/01 09:22:05;;;;;;;22.00;14.37;;;;;;;11.08;68.61;100125.41;5071657;28;20205;-72
2024/03/01 09:24:39;;;;;;;22.33;14.67;;;;;;;11.11;68.72;100138.28;5071899;28;20208;-72
2024/03/01 09:27:29;;;;;;;19.30;13.97;;;;;;;11.15;68.32;100131.34;5072038;28;20369;-69
2024/03/01 09:29:58;;;;;;;23.00;15.20;;;;;;;11.14;68.28;100122.78;5069763;28;20197;-70
2024/03/01 09:32:26;;;;;;;21.27;14.83;;;;;;;11.15;68.10;100121.03;5058313;28;20202;-69
2024/03/01 09:34:55;;;;;;;20.73;15.23;;;;;;;11.18;68.28;100106.38;5071027;28;20229;-71
2024/03/01 09:37:23;;;;;;;24.37;15.43;;;;;;;11.28;68.21;100120.03;5070655;28;20208;-74
2024/03/01 09:39:52;;;;;;;21.47;15.10;;;;;;;11.37;68.01;100125.03;5071302;28;20681;-72
2024/03/01 09:42:38;;;;;;;22.20;13.93;;;;;;;11.37;66.85;100114.72;5070969;28;20779;-72
2024/03/01 09:45:20;;;;;;;21.47;14.17;;;;;;;11.41;66.49;100125.84;5073688;28;20220;-72
2024/03/01 09:48:02;;;;;;;21.23;13.97;;;;;;;11.29;66.14;100119.13;5064004;28;20194;-71
2024/03/01 09:50:39;;;;;;;22.13;14.70;;;;;;;11.13;66.99;100134.81;5067093;28;20674;-70
2024/03/01 09:53:19;;;;;;;20.00;13.30;;;;;;;11.06;67.04;100125.44;5064979;28;20287;-73
2024/03/01 09:55:55;;;;;;;20.30;14.17;;;;;;;11.06;67.25;100128.03;5067925;28;20204;-72
2024/03/01 09:58:37;;;;;;;22.53;14.10;;;;;;;11.11;67.17;100133.13;5070746;28;20588;-72
2024/03/01 10:01:23;;;;;;;24.20;14.37;;;;;;;11.22;67.54;100141.56;5066599;28;20205;-70
2024/03/01 10:04:03;;;;;;;22.70;14.73;;;;;;;11.31;66.66;100135.47;5064143;28;20197;-70
2024/03/01 10:06:51;;;;;;;25.47;15.73;;;;;;;11.30;66.03;100121.72;5064285;28;20216;-71
2024/03/01 10:09:31;;;;;;;20.77;14.30;;;;;;;11.28;66.25;100130.34;5069484;28;20213;-70
2024/03/01 10:12:13;;;;;;;23.20;15.10;;;;;;;11.33;66.36;100115.63;5068710;28;20283;-70
2024/03/01 10:14:52;;;;;;;22.90;14.13;;;;;;;11.37;66.55;100125.03;5066725;28;20242;-67
2024/03/01 10:17:35;;;;;;;20.77;14.17;;;;;;;11.43;66.20;100104.31;5075302;28;20615;-72
2024/03/01 10:20:19;;;;;;;32.23;15.13;;;;;;;11.43;66.30;100124.97;5070891;28;20696;-69
2024/03/01 10:23:03;;;;;;;20.90;13.60;;;;;;;11.42;66.53;100120.69;5071054;28;20205;-69
2024/03/01 10:25:41;;;;;;;23.70;14.63;;;;;;;11.43;66.11;100114.66;5066897;28;20209;-71
2024/03/01 10:28:24;;;;;;;23.40;14.50;;;;;;;11.51;66.23;100117.97;5070406;28;20201;-72
2024/03/01 10:31:00;;;;;;;25.43;15.27;;;;;;;11.48;65.78;100107.69;5067061;28;20239;-71
2024/03/01 10:33:45;;;;;;;21.80;15.40;;;;;;;11.48;66.23;100107.69;5072018;28;20283;-68
2024/03/01 10:36:20;;;;;;;22.33;15.33;;;;;;;11.49;65.71;100100.81;5071666;28;20205;-72
2024/03/01 10:39:02;;;;;;;19.43;13.33;;;;;;;11.55;66.55;100103.28;5061685;28;20213;-69
2024/03/01 10:41:44;;;;;;;20.27;14.37;;;;;;;11.58;66.01;100096.34;5067214;28;20216;-74
2024/03/01 10:44:18;;;;;;;20.93;14.73;;;;;;;11.71;65.69;100103.91;5066784;28;20236;-72
2024/03/01 10:46:56;;;;;;;22.80;15.10;;;;;;;11.76;64.92;100097.81;5071131;28;20216;-69
2024/03/01 10:49:32;;;;;;;24.70;13.93;;;;;;;11.74;64.57;100088.38;5070178;28;20201;-72
2024/03/01 10:52:08;;;;;;;24.17;14.30;;;;;;;11.74;64.38;100089.22;5071371;28;20236;-69
2024/03/01 10:54:38;;;;;;;25.23;15.10;;;;;;;11.67;64.71;100097.09;5070643;28;20205;-66
2024/03/01 10:57:11;;;;;;;19.87;14.37;;;;;;;11.70;64.78;100084.13;5070735;28;20300;-73
2024/03/01 10:59:47;;;;;;;21.07;14.13;;;;;;;11.79;65.06;100081.44;5070811;28;20678;-69
2024/03/01 11:02:27;;;;;;;22.43;14.90;;;;;;;11.93;64.42;100069.19;5057900;28;20607;-70
2024/03/01 11:05:05;;;;;;;20.70;14.10;;;;;;;12.05;63.51;100068.97;5068998;28;20608;-68
2024/03/01 11:07:42;;;;;;;19.83;13.10;;;;;;;12.12;63.30;100069.72;5070218;28;20233;-69
2024/03/01 11:10:16;;;;;;;18.27;12.97;;;;;;;12.14;63.37;100067.09;5070208;28;20224;-70
2024/03/01 11:12:51;;;;;;;20.53;13.73;;;;;;;12.14;62.94;100072.25;5067341;28;20240;-69
2024/03/01 11:15:21;;;;;;;18.07;11.73;;;;;;;12.14;62.59;100074.84;5065624;28;20296;-68
2024/03/01 11:17:51;;;;;;;20.17;14.23;;;;;;;11.98;63.20;100072.53;5070197;28;20280;-69
2024/03/01 11:20:22;;;;;;;19.20;13.43;;;;;;;11.91;63.20;100067.50;5067315;28;20224;-68
2024/03/01 11:22:57;;;;;;;17.30;13.10;;;;;;;11.87;63.45;100077.03;5067126;28;20201;-68
2024/03/01 11:25:34;;;;;;;20.37;13.07;;;;;;;11.89;63.95;100075.25;5070798;28;20567;-68
2024/03/01 11:28:05;;;;;;;20.87;13.70;;;;;;;11.97;63.51;100070.00;5068472;28;20211;-67
2024/03/01 11:30:41;;;;;;;18.70;12.80;;;;;;;11.96;62.61;100063.94;5069075;28;20685;-69
2024/03/01 11:33:12;;;;;;;20.13;13.20;;;;;;;11.99;62.81;100058.72;5070160;28;20205;-70